sensor_id;sensor_type;location;lat;lon;timestamp;P1;durP1;ratioP1;P2;durP2;ratioP2
40256;SDS011;25977;45.462;9.210;2022-10-31T00:01:37;18.80;;;10.30;;
40256;SDS011;25977;45.462;9.210;2022-10-31T00:04:05;18.83;;;9.23;;
40256;SDS011;25977;45.462;9.210;2022-10-31T00:06:31;16.08;;;9.07;;
40256;SDS011;25977;45.462;9.210;2022-10-31T00:09:00;19.42;;;9.30;;
40256;SDS011;25977;45.462;9.210;2022-10-31T00:11:28;18.88;;;9.50;;
40256;SDS011;25977;45.462;9.210;2022-10-31T00:13:53;20.02;;;9.63;;
40256;SDS011;25977;45.462;9.210;2022-10-31T00:16:20;23.63;;;12.02;;
40256;SDS011;25977;45.462;9.210;2022-10-31T00:18:49;27.13;;;11.88;;
40256;SDS011;25977;45.462;9.210;2022-10-31T00:21:16;20.10;;;10.15;;
40256;SDS011;25977;45.462;9.210;2022-10-31T00:23:42;15.23;;;8.95;;
40256;SDS011;25977;45.462;9.210;2022-10-31T00:26:07;29.10;;;13.07;;
40256;SDS011;25977;45.462;9.210;2022-10-31T00:28:33;20.80;;;10.52;;
40256;SDS011;25977;45.462;9.210;2022-10-31T00:31:00;18.80;;;10.63;;
40256;SDS011;25977;45.462;9.210;2022-10-31T00:33:26;18.63;;;9.80;;
40256;SDS011;25977;45.462;9.210;2022-10-31T00:35:53;26.10;;;10.40;;
40256;SDS011;25977;45.462;9.210;2022-10-31T00:38:19;18.50;;;10.50;;
40256;SDS011;25977;45.462;9.210;2022-10-31T00:40:45;17.25;;;9.85;;
40256;SDS011;25977;45.462;9.210;2022-10-31T00:43:11;14.38;;;8.55;;
40256;SDS011;25977;45.462;9.210;2022-10-31T00:45:36;18.83;;;9.13;;
40256;SDS011;25977;45.462;9.210;2022-10-31T00:48:02;16.95;;;9.98;;
40256;SDS011;25977;45.462;9.210;2022-10-31T00:50:29;23.50;;;9.32;;
40256;SDS011;25977;45.462;9.210;2022-10-31T00:52:56;20.50;;;9.40;;
40256;SDS011;25977;45.462;9.210;2022-10-31T00:55:23;13.48;;;8.35;;
40256;SDS011;25977;45.462;9.210;2022-10-31T00:57:50;13.05;;;7.50;;
40256;SDS011;25977;45.462;9.210;2022-10-31T01:00:16;17.67;;;9.27;;
40256;SDS011;25977;45.462;9.210;2022-10-31T01:02:42;19.77;;;8.00;;
40256;SDS011;25977;45.462;9.210;2022-10-31T01:05:08;20.38;;;8.55;;
40256;SDS011;25977;45.462;9.210;2022-10-31T01:07:37;14.05;;;8.48;;
40256;SDS011;25977;45.462;9.210;2022-10-31T01:10:07;14.23;;;8.80;;
40256;SDS011;25977;45.462;9.210;2022-10-31T01:12:37;16.88;;;8.45;;
40256;SDS011;25977;45.462;9.210;2022-10-31T01:15:05;18.15;;;8.75;;
40256;SDS011;25977;45.462;9.210;2022-10-31T01:17:33;16.85;;;8.88;;
40256;SDS011;25977;45.462;9.210;2022-10-31T01:19:59;13.85;;;8.07;;
40256;SDS011;25977;45.462;9.210;2022-10-31T01:22:26;18.05;;;8.05;;
40256;SDS011;25977;45.462;9.210;2022-10-31T01:24:52;11.20;;;8.75;;
40256;SDS011;25977;45.462;9.210;2022-10-31T01:27:18;17.58;;;8.68;;
40256;SDS011;25977;45.462;9.210;2022-10-31T01:29:44;18.25;;;9.88;;
40256;SDS011;25977;45.462;9.210;2022-10-31T01:32:10;17.00;;;8.00;;
40256;SDS011;25977;45.462;9.210;2022-10-31T01:34:36;19.60;;;8.18;;
40256;SDS011;25977;45.462;9.210;2022-10-31T01:37:02;15.63;;;8.07;;
40256;SDS011;25977;45.462;9.210;2022-10-31T01:39:27;18.58;;;7.78;;
40256;SDS011;25977;45.462;9.210;2022-10-31T01:41:54;14.88;;;8.32;;
40256;SDS011;25977;45.462;9.210;2022-10-31T01:46:51;17.42;;;8.25;;
40256;SDS011;25977;45.462;9.210;2022-10-31T01:49:24;15.35;;;8.60;;
40256;SDS011;25977;45.462;9.210;2022-10-31T01:51:57;13.18;;;7.63;;
40256;SDS011;25977;45.462;9.210;2022-10-31T01:54:28;13.23;;;7.38;;
40256;SDS011;25977;45.462;9.210;2022-10-31T01:56:57;13.80;;;7.63;;
40256;SDS011;25977;45.462;9.210;2022-10-31T01:59:24;18.70;;;8.18;;
40256;SDS011;25977;45.462;9.210;2022-10-31T02:01:54;15.00;;;7.85;;
40256;SDS011;25977;45.462;9.210;2022-10-31T02:04:20;14.45;;;8.85;;
40256;SDS011;25977;45.462;9.210;2022-10-31T02:06:51;13.95;;;8.43;;
40256;SDS011;25977;45.462;9.210;2022-10-31T02:09:31;8.90;;;7.00;;
40256;SDS011;25977;45.462;9.210;2022-10-31T02:12:01;17.73;;;9.05;;
40256;SDS011;25977;45.462;9.210;2022-10-31T02:14:28;22.25;;;9.80;;
40256;SDS011;25977;45.462;9.210;2022-10-31T02:16:56;23.42;;;7.90;;
40256;SDS011;25977;45.462;9.210;2022-10-31T02:19:37;18.88;;;8.98;;
40256;SDS011;25977;45.462;9.210;2022-10-31T02:22:40;13.70;;;9.32;;
40256;SDS011;25977;45.462;9.210;2022-10-31T02:25:37;16.47;;;8.23;;
40256;SDS011;25977;45.462;9.210;2022-10-31T02:28:25;11.25;;;7.78;;
40256;SDS011;25977;45.462;9.210;2022-10-31T02:33:59;17.17;;;7.32;;
40256;SDS011;25977;45.462;9.210;2022-10-31T02:40:04;12.95;;;7.72;;
40256;SDS011;25977;45.462;9.210;2022-10-31T02:43:05;11.80;;;7.38;;
40256;SDS011;25977;45.462;9.210;2022-10-31T02:48:30;12.88;;;7.13;;
40256;SDS011;25977;45.462;9.210;2022-10-31T02:51:00;16.15;;;7.53;;
40256;SDS011;25977;45.462;9.210;2022-10-31T02:53:35;12.68;;;6.88;;
40256;SDS011;25977;45.462;9.210;2022-10-31T02:56:04;14.43;;;7.15;;
40256;SDS011;25977;45.462;9.210;2022-10-31T02:58:49;15.77;;;6.50;;
40256;SDS011;25977;45.462;9.210;2022-10-31T03:01:33;13.85;;;6.70;;
40256;SDS011;25977;45.462;9.210;2022-10-31T03:05:02;16.85;;;6.85;;
40256;SDS011;25977;45.462;9.210;2022-10-31T03:15:30;12.00;;;5.75;;
40256;SDS011;25977;45.462;9.210;2022-10-31T03:18:08;12.57;;;6.32;;
40256;SDS011;25977;45.462;9.210;2022-10-31T03:20:42;15.60;;;6.63;;
40256;SDS011;25977;45.462;9.210;2022-10-31T03:23:17;8.18;;;6.25;;
40256;SDS011;25977;45.462;9.210;2022-10-31T03:25:48;13.48;;;6.00;;
40256;SDS011;25977;45.462;9.210;2022-10-31T03:28:16;8.50;;;5.60;;
40256;SDS011;25977;45.462;9.210;2022-10-31T03:30:49;10.68;;;5.40;;
40256;SDS011;25977;45.462;9.210;2022-10-31T03:33:17;10.93;;;5.50;;
40256;SDS011;25977;45.462;9.210;2022-10-31T03:35:47;10.27;;;5.70;;
40256;SDS011;25977;45.462;9.210;2022-10-31T03:38:16;14.30;;;5.85;;
40256;SDS011;25977;45.462;9.210;2022-10-31T03:40:43;13.38;;;7.10;;
40256;SDS011;25977;45.462;9.210;2022-10-31T03:43:13;13.27;;;6.70;;
40256;SDS011;25977;45.462;9.210;2022-10-31T03:45:45;8.70;;;5.77;;
40256;SDS011;25977;45.462;9.210;2022-10-31T03:48:12;12.23;;;6.63;;
40256;SDS011;25977;45.462;9.210;2022-10-31T03:50:42;12.88;;;5.82;;
40256;SDS011;25977;45.462;9.210;2022-10-31T03:53:26;17.10;;;6.53;;
40256;SDS011;25977;45.462;9.210;2022-10-31T03:56:18;11.65;;;5.88;;
40256;SDS011;25977;45.462;9.210;2022-10-31T04:01:51;14.63;;;6.43;;
40256;SDS011;25977;45.462;9.210;2022-10-31T04:04:21;10.10;;;6.03;;
40256;SDS011;25977;45.462;9.210;2022-10-31T04:06:48;16.02;;;6.57;;
40256;SDS011;25977;45.462;9.210;2022-10-31T04:09:16;13.68;;;6.82;;
40256;SDS011;25977;45.462;9.210;2022-10-31T04:11:45;17.25;;;6.80;;
40256;SDS011;25977;45.462;9.210;2022-10-31T04:14:38;11.50;;;6.22;;
40256;SDS011;25977;45.462;9.210;2022-10-31T04:17:07;12.52;;;6.63;;
40256;SDS011;25977;45.462;9.210;2022-10-31T04:19:39;13.35;;;6.95;;
40256;SDS011;25977;45.462;9.210;2022-10-31T04:22:06;13.07;;;8.00;;
40256;SDS011;25977;45.462;9.210;2022-10-31T04:24:32;10.45;;;7.13;;
40256;SDS011;25977;45.462;9.210;2022-10-31T04:26:58;11.82;;;6.22;;
40256;SDS011;25977;45.462;9.210;2022-10-31T04:29:23;10.38;;;7.13;;
40256;SDS011;25977;45.462;9.210;2022-10-31T04:31:49;13.20;;;7.50;;
40256;SDS011;25977;45.462;9.210;2022-10-31T04:34:16;14.75;;;7.35;;
40256;SDS011;25977;45.462;9.210;2022-10-31T04:36:42;13.80;;;6.70;;
40256;SDS011;25977;45.462;9.210;2022-10-31T04:39:07;13.43;;;8.57;;
40256;SDS011;25977;45.462;9.210;2022-10-31T04:41:39;17.17;;;8.63;;
40256;SDS011;25977;45.462;9.210;2022-10-31T04:44:12;18.70;;;9.80;;
40256;SDS011;25977;45.462;9.210;2022-10-31T04:46:38;18.90;;;10.73;;
40256;SDS011;25977;45.462;9.210;2022-10-31T04:49:04;15.52;;;9.18;;
40256;SDS011;25977;45.462;9.210;2022-10-31T04:51:29;18.15;;;9.57;;
40256;SDS011;25977;45.462;9.210;2022-10-31T04:53:55;19.50;;;9.52;;
40256;SDS011;25977;45.462;9.210;2022-10-31T04:56:27;15.85;;;9.85;;
40256;SDS011;25977;45.462;9.210;2022-10-31T04:58:58;12.50;;;9.55;;
40256;SDS011;25977;45.462;9.210;2022-10-31T05:01:26;26.80;;;9.90;;
40256;SDS011;25977;45.462;9.210;2022-10-31T05:03:53;19.75;;;9.02;;
40256;SDS011;25977;45.462;9.210;2022-10-31T05:06:19;13.18;;;9.00;;
40256;SDS011;25977;45.462;9.210;2022-10-31T05:08:45;14.82;;;8.63;;
40256;SDS011;25977;45.462;9.210;2022-10-31T05:11:11;20.00;;;8.40;;
40256;SDS011;25977;45.462;9.210;2022-10-31T05:13:38;18.70;;;7.88;;
40256;SDS011;25977;45.462;9.210;2022-10-31T05:16:12;17.27;;;8.40;;
40256;SDS011;25977;45.462;9.210;2022-10-31T05:18:56;15.27;;;8.35;;
40256;SDS011;25977;45.462;9.210;2022-10-31T05:21:41;17.88;;;9.10;;
40256;SDS011;25977;45.462;9.210;2022-10-31T05:24:07;28.88;;;8.65;;
40256;SDS011;25977;45.462;9.210;2022-10-31T05:26:37;11.00;;;7.40;;
40256;SDS011;25977;45.462;9.210;2022-10-31T05:29:02;12.77;;;7.45;;
40256;SDS011;25977;45.462;9.210;2022-10-31T05:31:28;16.33;;;7.65;;
40256;SDS011;25977;45.462;9.210;2022-10-31T05:33:54;21.17;;;9.77;;
40256;SDS011;25977;45.462;9.210;2022-10-31T05:36:39;23.60;;;10.30;;
40256;SDS011;25977;45.462;9.210;2022-10-31T05:39:14;22.10;;;8.82;;
40256;SDS011;25977;45.462;9.210;2022-10-31T05:41:44;13.90;;;8.27;;
40256;SDS011;25977;45.462;9.210;2022-10-31T05:44:18;19.25;;;9.38;;
40256;SDS011;25977;45.462;9.210;2022-10-31T05:47:00;20.35;;;8.48;;
40256;SDS011;25977;45.462;9.210;2022-10-31T05:49:44;17.92;;;8.40;;
40256;SDS011;25977;45.462;9.210;2022-10-31T05:52:33;16.88;;;7.40;;
40256;SDS011;25977;45.462;9.210;2022-10-31T05:55:06;16.60;;;8.43;;
40256;SDS011;25977;45.462;9.210;2022-10-31T05:57:32;16.67;;;8.18;;
40256;SDS011;25977;45.462;9.210;2022-10-31T05:59:59;18.50;;;9.50;;
40256;SDS011;25977;45.462;9.210;2022-10-31T06:02:25;16.30;;;9.50;;
40256;SDS011;25977;45.462;9.210;2022-10-31T06:05:10;15.93;;;9.10;;
40256;SDS011;25977;45.462;9.210;2022-10-31T06:07:37;19.83;;;10.02;;
40256;SDS011;25977;45.462;9.210;2022-10-31T06:10:03;15.82;;;8.85;;
40256;SDS011;25977;45.462;9.210;2022-10-31T06:12:31;14.80;;;9.02;;
40256;SDS011;25977;45.462;9.210;2022-10-31T06:15:17;16.42;;;9.60;;
40256;SDS011;25977;45.462;9.210;2022-10-31T06:17:43;19.35;;;8.93;;
40256;SDS011;25977;45.462;9.210;2022-10-31T06:20:09;19.35;;;9.30;;
40256;SDS011;25977;45.462;9.210;2022-10-31T06:22:43;18.55;;;9.90;;
40256;SDS011;25977;45.462;9.210;2022-10-31T06:25:09;25.92;;;10.82;;
40256;SDS011;25977;45.462;9.210;2022-10-31T06:27:37;15.32;;;9.82;;
40256;SDS011;25977;45.462;9.210;2022-10-31T06:30:10;19.02;;;9.20;;
40256;SDS011;25977;45.462;9.210;2022-10-31T06:32:36;16.88;;;9.32;;
40256;SDS011;25977;45.462;9.210;2022-10-31T06:35:02;16.58;;;10.30;;
40256;SDS011;25977;45.462;9.210;2022-10-31T06:37:28;19.40;;;10.52;;
40256;SDS011;25977;45.462;9.210;2022-10-31T06:40:00;25.00;;;10.18;;
40256;SDS011;25977;45.462;9.210;2022-10-31T06:42:26;16.83;;;10.50;;
40256;SDS011;25977;45.462;9.210;2022-10-31T06:44:51;19.05;;;9.38;;
40256;SDS011;25977;45.462;9.210;2022-10-31T06:47:35;21.08;;;11.13;;
40256;SDS011;25977;45.462;9.210;2022-10-31T06:50:07;22.63;;;9.63;;
40256;SDS011;25977;45.462;9.210;2022-10-31T06:52:33;17.35;;;8.93;;
40256;SDS011;25977;45.462;9.210;2022-10-31T06:55:01;19.30;;;8.85;;
40256;SDS011;25977;45.462;9.210;2022-10-31T06:57:27;24.70;;;9.60;;
40256;SDS011;25977;45.462;9.210;2022-10-31T06:59:55;13.57;;;9.20;;
40256;SDS011;25977;45.462;9.210;2022-10-31T07:02:41;25.77;;;9.93;;
40256;SDS011;25977;45.462;9.210;2022-10-31T07:05:07;21.13;;;9.48;;
40256;SDS011;25977;45.462;9.210;2022-10-31T07:07:33;19.52;;;10.57;;
40256;SDS011;25977;45.462;9.210;2022-10-31T07:09:58;18.88;;;9.02;;
40256;SDS011;25977;45.462;9.210;2022-10-31T07:12:44;28.23;;;10.07;;
40256;SDS011;25977;45.462;9.210;2022-10-31T07:15:10;25.45;;;9.90;;
40256;SDS011;25977;45.462;9.210;2022-10-31T07:17:36;27.55;;;10.93;;
40256;SDS011;25977;45.462;9.210;2022-10-31T07:20:03;19.15;;;10.10;;
40256;SDS011;25977;45.462;9.210;2022-10-31T07:22:36;30.58;;;10.48;;
40256;SDS011;25977;45.462;9.210;2022-10-31T07:25:05;16.13;;;9.60;;
40256;SDS011;25977;45.462;9.210;2022-10-31T07:27:50;18.65;;;10.13;;
40256;SDS011;25977;45.462;9.210;2022-10-31T07:30:18;19.25;;;10.00;;
40256;SDS011;25977;45.462;9.210;2022-10-31T07:32:48;19.70;;;11.57;;
40256;SDS011;25977;45.462;9.210;2022-10-31T07:35:17;20.08;;;10.25;;
40256;SDS011;25977;45.462;9.210;2022-10-31T07:37:46;19.05;;;10.35;;
40256;SDS011;25977;45.462;9.210;2022-10-31T07:40:14;16.73;;;11.20;;
40256;SDS011;25977;45.462;9.210;2022-10-31T07:42:40;23.75;;;10.75;;
40256;SDS011;25977;45.462;9.210;2022-10-31T07:45:27;16.38;;;9.05;;
40256;SDS011;25977;45.462;9.210;2022-10-31T07:48:27;23.08;;;11.07;;
40256;SDS011;25977;45.462;9.210;2022-10-31T07:51:19;16.73;;;9.50;;
40256;SDS011;25977;45.462;9.210;2022-10-31T07:54:13;19.98;;;11.55;;
40256;SDS011;25977;45.462;9.210;2022-10-31T07:56:39;19.00;;;11.15;;
40256;SDS011;25977;45.462;9.210;2022-10-31T07:59:05;21.13;;;11.55;;
40256;SDS011;25977;45.462;9.210;2022-10-31T08:01:31;18.23;;;10.40;;
40256;SDS011;25977;45.462;9.210;2022-10-31T08:04:17;23.52;;;11.65;;
40256;SDS011;25977;45.462;9.210;2022-10-31T08:07:01;25.05;;;11.77;;
40256;SDS011;25977;45.462;9.210;2022-10-31T08:09:32;23.58;;;11.75;;
40256;SDS011;25977;45.462;9.210;2022-10-31T08:12:03;21.38;;;12.77;;
40256;SDS011;25977;45.462;9.210;2022-10-31T08:14:31;21.13;;;11.70;;
40256;SDS011;25977;45.462;9.210;2022-10-31T08:16:57;23.00;;;11.20;;
40256;SDS011;25977;45.462;9.210;2022-10-31T08:19:29;25.23;;;11.43;;
40256;SDS011;25977;45.462;9.210;2022-10-31T08:21:54;22.05;;;12.30;;
40256;SDS011;25977;45.462;9.210;2022-10-31T08:24:21;21.83;;;11.35;;
40256;SDS011;25977;45.462;9.210;2022-10-31T08:26:47;24.92;;;12.88;;
40256;SDS011;25977;45.462;9.210;2022-10-31T08:29:13;25.52;;;12.35;;
40256;SDS011;25977;45.462;9.210;2022-10-31T08:31:41;26.05;;;11.35;;
40256;SDS011;25977;45.462;9.210;2022-10-31T08:34:33;25.08;;;11.68;;
40256;SDS011;25977;45.462;9.210;2022-10-31T08:37:34;20.55;;;13.23;;
40256;SDS011;25977;45.462;9.210;2022-10-31T08:40:01;22.23;;;12.40;;
40256;SDS011;25977;45.462;9.210;2022-10-31T08:42:32;20.05;;;11.05;;
40256;SDS011;25977;45.462;9.210;2022-10-31T08:44:58;26.05;;;12.82;;
40256;SDS011;25977;45.462;9.210;2022-10-31T08:47:25;21.10;;;12.07;;
40256;SDS011;25977;45.462;9.210;2022-10-31T08:49:52;25.23;;;12.52;;
40256;SDS011;25977;45.462;9.210;2022-10-31T08:52:18;27.42;;;11.88;;
40256;SDS011;25977;45.462;9.210;2022-10-31T08:54:48;25.83;;;13.18;;
40256;SDS011;25977;45.462;9.210;2022-10-31T08:57:32;21.67;;;11.10;;
40256;SDS011;25977;45.462;9.210;2022-10-31T08:59:58;25.70;;;12.52;;
40256;SDS011;25977;45.462;9.210;2022-10-31T09:03:06;19.83;;;11.98;;
40256;SDS011;25977;45.462;9.210;2022-10-31T09:05:37;27.63;;;12.60;;
40256;SDS011;25977;45.462;9.210;2022-10-31T09:08:04;26.13;;;11.65;;
40256;SDS011;25977;45.462;9.210;2022-10-31T09:10:31;22.85;;;11.40;;
40256;SDS011;25977;45.462;9.210;2022-10-31T09:13:11;25.20;;;12.13;;
40256;SDS011;25977;45.462;9.210;2022-10-31T09:15:58;20.00;;;11.77;;
40256;SDS011;25977;45.462;9.210;2022-10-31T09:18:24;24.27;;;12.57;;
40256;SDS011;25977;45.462;9.210;2022-10-31T09:20:59;27.83;;;12.15;;
40256;SDS011;25977;45.462;9.210;2022-10-31T09:23:26;23.02;;;12.35;;
40256;SDS011;25977;45.462;9.210;2022-10-31T09:25:53;14.20;;;10.55;;
40256;SDS011;25977;45.462;9.210;2022-10-31T09:28:36;26.00;;;11.20;;
40256;SDS011;25977;45.462;9.210;2022-10-31T09:31:07;19.65;;;12.20;;
40256;SDS011;25977;45.462;9.210;2022-10-31T09:33:53;25.95;;;11.75;;
40256;SDS011;25977;45.462;9.210;2022-10-31T09:36:34;16.67;;;10.68;;
40256;SDS011;25977;45.462;9.210;2022-10-31T09:39:02;27.38;;;10.82;;
40256;SDS011;25977;45.462;9.210;2022-10-31T09:44:12;18.60;;;10.45;;
40256;SDS011;25977;45.462;9.210;2022-10-31T09:52:40;23.73;;;12.02;;
40256;SDS011;25977;45.462;9.210;2022-10-31T09:55:39;18.95;;;10.07;;
40256;SDS011;25977;45.462;9.210;2022-10-31T09:58:09;19.50;;;9.30;;
40256;SDS011;25977;45.462;9.210;2022-10-31T10:00:42;17.90;;;10.20;;
40256;SDS011;25977;45.462;9.210;2022-10-31T10:06:11;16.38;;;10.05;;
40256;SDS011;25977;45.462;9.210;2022-10-31T10:09:24;19.33;;;9.35;;
40256;SDS011;25977;45.462;9.210;2022-10-31T10:17:54;21.73;;;9.90;;
40256;SDS011;25977;45.462;9.210;2022-10-31T10:20:39;16.10;;;10.23;;
40256;SDS011;25977;45.462;9.210;2022-10-31T10:23:23;22.38;;;9.65;;
40256;SDS011;25977;45.462;9.210;2022-10-31T10:26:20;20.77;;;10.48;;
40256;SDS011;25977;45.462;9.210;2022-10-31T10:28:48;19.10;;;10.07;;
40256;SDS011;25977;45.462;9.210;2022-10-31T10:31:28;13.82;;;10.55;;
40256;SDS011;25977;45.462;9.210;2022-10-31T10:36:38;17.70;;;9.75;;
40256;SDS011;25977;45.462;9.210;2022-10-31T10:39:14;23.38;;;10.30;;
40256;SDS011;25977;45.462;9.210;2022-10-31T10:41:44;23.50;;;11.02;;
40256;SDS011;25977;45.462;9.210;2022-10-31T10:44:35;19.05;;;10.45;;
40256;SDS011;25977;45.462;9.210;2022-10-31T10:47:23;15.18;;;10.02;;
40256;SDS011;25977;45.462;9.210;2022-10-31T10:50:14;16.30;;;9.55;;
40256;SDS011;25977;45.462;9.210;2022-10-31T10:55:31;18.08;;;11.30;;
40256;SDS011;25977;45.462;9.210;2022-10-31T10:58:08;15.73;;;10.52;;
40256;SDS011;25977;45.462;9.210;2022-10-31T11:00:40;16.98;;;11.57;;
40256;SDS011;25977;45.462;9.210;2022-10-31T11:08:26;14.20;;;9.65;;
40256;SDS011;25977;45.462;9.210;2022-10-31T11:13:58;13.85;;;8.60;;
40256;SDS011;25977;45.462;9.210;2022-10-31T11:16:35;14.60;;;8.57;;
40256;SDS011;25977;45.462;9.210;2022-10-31T11:21:40;16.90;;;8.52;;
40256;SDS011;25977;45.462;9.210;2022-10-31T11:26:38;11.68;;;7.55;;
40256;SDS011;25977;45.462;9.210;2022-10-31T11:29:12;12.45;;;7.13;;
40256;SDS011;25977;45.462;9.210;2022-10-31T11:31:53;15.35;;;8.13;;
40256;SDS011;25977;45.462;9.210;2022-10-31T11:37:13;10.57;;;7.15;;
40256;SDS011;25977;45.462;9.210;2022-10-31T11:39:43;17.92;;;6.72;;
40256;SDS011;25977;45.462;9.210;2022-10-31T11:44:41;17.00;;;6.82;;
40256;SDS011;25977;45.462;9.210;2022-10-31T11:47:12;13.38;;;6.05;;
40256;SDS011;25977;45.462;9.210;2022-10-31T11:49:41;17.83;;;6.72;;
40256;SDS011;25977;45.462;9.210;2022-10-31T11:52:17;14.38;;;6.80;;
40256;SDS011;25977;45.462;9.210;2022-10-31T11:54:47;23.38;;;6.43;;
40256;SDS011;25977;45.462;9.210;2022-10-31T11:57:33;12.38;;;5.75;;
40256;SDS011;25977;45.462;9.210;2022-10-31T12:00:21;10.23;;;5.45;;
40256;SDS011;25977;45.462;9.210;2022-10-31T12:02:49;7.32;;;4.90;;
40256;SDS011;25977;45.462;9.210;2022-10-31T12:05:23;16.60;;;6.05;;
40256;SDS011;25977;45.462;9.210;2022-10-31T12:07:57;8.45;;;5.07;;
40256;SDS011;25977;45.462;9.210;2022-10-31T12:10:33;8.05;;;5.53;;
40256;SDS011;25977;45.462;9.210;2022-10-31T12:15:56;11.27;;;5.95;;
40256;SDS011;25977;45.462;9.210;2022-10-31T12:18:56;12.60;;;5.78;;
40256;SDS011;25977;45.462;9.210;2022-10-31T12:21:34;11.35;;;6.40;;
40256;SDS011;25977;45.462;9.210;2022-10-31T12:30:02;10.77;;;5.32;;
40256;SDS011;25977;45.462;9.210;2022-10-31T12:32:38;8.88;;;5.65;;
40256;SDS011;25977;45.462;9.210;2022-10-31T12:37:49;11.05;;;5.63;;
40256;SDS011;25977;45.462;9.210;2022-10-31T12:45:55;15.27;;;5.50;;
40256;SDS011;25977;45.462;9.210;2022-10-31T12:54:30;14.93;;;4.75;;
40256;SDS011;25977;45.462;9.210;2022-10-31T13:00:12;11.25;;;5.00;;
40256;SDS011;25977;45.462;9.210;2022-10-31T13:02:52;9.48;;;4.88;;
40256;SDS011;25977;45.462;9.210;2022-10-31T13:05:39;6.68;;;4.65;;
40256;SDS011;25977;45.462;9.210;2022-10-31T13:10:42;13.95;;;5.53;;
40256;SDS011;25977;45.462;9.210;2022-10-31T13:13:12;8.18;;;4.57;;
40256;SDS011;25977;45.462;9.210;2022-10-31T13:15:50;9.40;;;4.18;;
40256;SDS011;25977;45.462;9.210;2022-10-31T13:21:27;7.53;;;4.82;;
40256;SDS011;25977;45.462;9.210;2022-10-31T13:23:59;10.67;;;4.90;;
40256;SDS011;25977;45.462;9.210;2022-10-31T13:31:45;11.93;;;3.78;;
40256;SDS011;25977;45.462;9.210;2022-10-31T13:37:04;9.45;;;3.95;;
40256;SDS011;25977;45.462;9.210;2022-10-31T13:45:20;9.02;;;4.13;;
40256;SDS011;25977;45.462;9.210;2022-10-31T13:50:40;9.50;;;3.97;;
40256;SDS011;25977;45.462;9.210;2022-10-31T13:53:11;7.65;;;4.78;;
40256;SDS011;25977;45.462;9.210;2022-10-31T13:55:44;11.73;;;4.57;;
40256;SDS011;25977;45.462;9.210;2022-10-31T13:58:28;10.77;;;4.03;;
40256;SDS011;25977;45.462;9.210;2022-10-31T14:01:05;12.18;;;4.43;;
40256;SDS011;25977;45.462;9.210;2022-10-31T14:03:41;8.38;;;3.75;;
40256;SDS011;25977;45.462;9.210;2022-10-31T14:06:09;6.95;;;3.55;;
40256;SDS011;25977;45.462;9.210;2022-10-31T14:08:37;13.85;;;4.43;;
40256;SDS011;25977;45.462;9.210;2022-10-31T14:11:07;14.48;;;3.63;;
40256;SDS011;25977;45.462;9.210;2022-10-31T14:13:38;7.00;;;3.42;;
40256;SDS011;25977;45.462;9.210;2022-10-31T14:16:20;9.23;;;4.40;;
40256;SDS011;25977;45.462;9.210;2022-10-31T14:19:36;13.23;;;4.00;;
40256;SDS011;25977;45.462;9.210;2022-10-31T14:21:46;14.15;;;3.90;;
40256;SDS011;25977;45.462;9.210;2022-10-31T14:24:35;7.43;;;4.05;;
40256;SDS011;25977;45.462;9.210;2022-10-31T14:29:49;6.47;;;3.42;;
40256;SDS011;25977;45.462;9.210;2022-10-31T14:32:24;6.93;;;3.53;;
40256;SDS011;25977;45.462;9.210;2022-10-31T14:40:08;10.27;;;3.30;;
40256;SDS011;25977;45.462;9.210;2022-10-31T14:50:56;10.10;;;3.83;;
40256;SDS011;25977;45.462;9.210;2022-10-31T14:53:27;12.07;;;4.82;;
40256;SDS011;25977;45.462;9.210;2022-10-31T14:55:57;17.73;;;4.38;;
40256;SDS011;25977;45.462;9.210;2022-10-31T15:01:03;12.43;;;4.20;;
40256;SDS011;25977;45.462;9.210;2022-10-31T15:03:33;10.30;;;3.60;;
40256;SDS011;25977;45.462;9.210;2022-10-31T15:06:05;11.23;;;4.70;;
40256;SDS011;25977;45.462;9.210;2022-10-31T15:08:43;10.82;;;3.05;;
40256;SDS011;25977;45.462;9.210;2022-10-31T15:11:15;16.77;;;5.18;;
40256;SDS011;25977;45.462;9.210;2022-10-31T15:16:28;9.25;;;3.83;;
40256;SDS011;25977;45.462;9.210;2022-10-31T15:18:59;8.70;;;3.70;;
40256;SDS011;25977;45.462;9.210;2022-10-31T15:21:29;8.50;;;3.80;;
40256;SDS011;25977;45.462;9.210;2022-10-31T15:23:59;7.65;;;3.80;;
40256;SDS011;25977;45.462;9.210;2022-10-31T15:26:35;6.25;;;4.07;;
40256;SDS011;25977;45.462;9.210;2022-10-31T15:29:10;11.20;;;4.18;;
40256;SDS011;25977;45.462;9.210;2022-10-31T15:31:38;5.28;;;3.53;;
40256;SDS011;25977;45.462;9.210;2022-10-31T15:34:12;9.35;;;3.50;;
40256;SDS011;25977;45.462;9.210;2022-10-31T15:36:47;9.30;;;4.88;;
40256;SDS011;25977;45.462;9.210;2022-10-31T15:39:14;10.20;;;3.78;;
40256;SDS011;25977;45.462;9.210;2022-10-31T15:41:51;7.43;;;4.00;;
40256;SDS011;25977;45.462;9.210;2022-10-31T15:44:20;9.05;;;3.78;;
40256;SDS011;25977;45.462;9.210;2022-10-31T15:46:54;7.03;;;3.22;;
40256;SDS011;25977;45.462;9.210;2022-10-31T15:49:29;8.23;;;4.15;;
40256;SDS011;25977;45.462;9.210;2022-10-31T15:52:17;10.60;;;4.65;;
40256;SDS011;25977;45.462;9.210;2022-10-31T15:58:11;10.23;;;4.95;;
40256;SDS011;25977;45.462;9.210;2022-10-31T16:00:39;7.03;;;5.00;;
40256;SDS011;25977;45.462;9.210;2022-10-31T16:03:06;17.77;;;5.20;;
40256;SDS011;25977;45.462;9.210;2022-10-31T16:05:53;8.15;;;3.97;;
40256;SDS011;25977;45.462;9.210;2022-10-31T16:13:36;10.38;;;5.13;;
40256;SDS011;25977;45.462;9.210;2022-10-31T16:16:10;11.20;;;4.60;;
40256;SDS011;25977;45.462;9.210;2022-10-31T16:18:41;14.98;;;5.28;;
40256;SDS011;25977;45.462;9.210;2022-10-31T16:21:07;11.88;;;6.18;;
40256;SDS011;25977;45.462;9.210;2022-10-31T16:23:34;17.08;;;5.32;;
40256;SDS011;25977;45.462;9.210;2022-10-31T16:26:07;9.88;;;4.75;;
40256;SDS011;25977;45.462;9.210;2022-10-31T16:28:33;17.13;;;4.85;;
40256;SDS011;25977;45.462;9.210;2022-10-31T16:31:00;10.27;;;4.53;;
40256;SDS011;25977;45.462;9.210;2022-10-31T16:33:30;8.38;;;4.13;;
40256;SDS011;25977;45.462;9.210;2022-10-31T16:38:53;17.40;;;5.88;;
40256;SDS011;25977;45.462;9.210;2022-10-31T16:41:19;9.20;;;4.78;;
40256;SDS011;25977;45.462;9.210;2022-10-31T16:43:46;11.93;;;4.50;;
40256;SDS011;25977;45.462;9.210;2022-10-31T16:46:15;13.35;;;5.20;;
40256;SDS011;25977;45.462;9.210;2022-10-31T16:48:45;12.70;;;4.68;;
40256;SDS011;25977;45.462;9.210;2022-10-31T16:51:11;9.90;;;5.43;;
40256;SDS011;25977;45.462;9.210;2022-10-31T16:53:37;16.30;;;4.45;;
40256;SDS011;25977;45.462;9.210;2022-10-31T16:56:03;11.80;;;4.90;;
40256;SDS011;25977;45.462;9.210;2022-10-31T16:58:32;11.48;;;5.47;;
40256;SDS011;25977;45.462;9.210;2022-10-31T17:01:00;13.07;;;5.25;;
40256;SDS011;25977;45.462;9.210;2022-10-31T17:03:29;11.20;;;5.22;;
40256;SDS011;25977;45.462;9.210;2022-10-31T17:05:55;10.85;;;5.03;;
40256;SDS011;25977;45.462;9.210;2022-10-31T17:08:21;11.65;;;5.38;;
40256;SDS011;25977;45.462;9.210;2022-10-31T17:10:50;12.38;;;4.95;;
40256;SDS011;25977;45.462;9.210;2022-10-31T17:13:18;21.10;;;5.95;;
40256;SDS011;25977;45.462;9.210;2022-10-31T17:15:50;14.88;;;5.00;;
40256;SDS011;25977;45.462;9.210;2022-10-31T17:18:19;15.98;;;4.65;;
40256;SDS011;25977;45.462;9.210;2022-10-31T17:20:45;20.00;;;5.53;;
40256;SDS011;25977;45.462;9.210;2022-10-31T17:23:12;11.38;;;5.15;;
40256;SDS011;25977;45.462;9.210;2022-10-31T17:25:39;13.40;;;5.72;;
40256;SDS011;25977;45.462;9.210;2022-10-31T17:28:05;12.75;;;6.10;;
40256;SDS011;25977;45.462;9.210;2022-10-31T17:30:31;20.30;;;7.38;;